createdAt,value
2022-08-26T00:01:57.465Z,21.42
2022-08-26T00:04:26.307Z,21.73
2022-08-26T00:06:56.030Z,23.42
2022-08-26T00:09:25.069Z,20.45
2022-08-26T00:11:54.431Z,20.15
2022-08-26T00:14:27.174Z,18.80
2022-08-26T00:16:57.398Z,20.17
2022-08-26T00:19:25.420Z,19.80
2022-08-26T00:21:53.026Z,21.10
2022-08-26T00:24:21.861Z,20.52
2022-08-26T00:26:50.053Z,19.33
2022-08-26T00:29:19.794Z,18.70
2022-08-26T00:31:49.055Z,18.50
2022-08-26T00:34:19.377Z,27.92
2022-08-26T00:36:51.851Z,25.73
2022-08-26T00:39:20.553Z,25.98
2022-08-26T00:41:48.710Z,24.17
2022-08-26T00:44:17.125Z,22.52
2022-08-26T00:46:53.920Z,20.63
2022-08-26T00:49:47.792Z,22.50
2022-08-26T00:52:20.855Z,19.77
2022-08-26T00:55:08.018Z,20.83
2022-08-26T00:57:37.137Z,21.73
2022-08-26T01:00:12.728Z,18.25
2022-08-26T01:02:40.966Z,18.38
2022-08-26T01:05:15.328Z,18.42
2022-08-26T01:07:42.816Z,19.45
2022-08-26T01:10:19.336Z,17.70
2022-08-26T01:12:52.906Z,20.05
2022-08-26T01:15:26.580Z,17.50
2022-08-26T01:17:59.031Z,16.35
2022-08-26T01:20:52.179Z,15.63
2022-08-26T01:23:40.425Z,15.88
2022-08-26T01:26:35.016Z,14.80
2022-08-26T01:29:05.849Z,15.32
2022-08-26T01:34:29.549Z,15.40
2022-08-26T01:37:16.088Z,15.07
2022-08-26T01:39:48.809Z,15.32
2022-08-26T01:42:19.044Z,15.55
2022-08-26T01:45:19.945Z,16.05
2022-08-26T01:47:56.934Z,14.82
2022-08-26T01:50:32.778Z,13.70
2022-08-26T01:53:06.637Z,12.45
2022-08-26T01:55:36.738Z,12.80
2022-08-26T01:58:20.976Z,12.75
2022-08-26T02:00:48.843Z,14.38
2022-08-26T02:03:21.650Z,14.13
2022-08-26T02:05:53.915Z,13.40
2022-08-26T02:08:42.118Z,13.65
2022-08-26T02:11:11.141Z,11.57
2022-08-26T02:13:46.219Z,12.57
2022-08-26T02:16:20.167Z,12.52
2022-08-26T02:18:48.964Z,13.27
2022-08-26T02:21:20.541Z,15.23
2022-08-26T02:23:47.940Z,14.45
2022-08-26T02:26:21.897Z,12.48
2022-08-26T02:28:51.764Z,12.00
2022-08-26T02:31:19.975Z,14.32
2022-08-26T02:33:48.280Z,15.10
2022-08-26T02:36:25.102Z,12.82
2022-08-26T02:38:56.403Z,12.05
2022-08-26T02:41:24.038Z,12.45
2022-08-26T02:43:52.108Z,12.65
2022-08-26T02:46:27.840Z,11.75
2022-08-26T02:48:58.270Z,12.93
2022-08-26T02:51:25.735Z,14.55
2022-08-26T02:53:53.341Z,11.95
2022-08-26T02:56:20.649Z,12.02
2022-08-26T02:58:47.940Z,11.93
2022-08-26T03:01:30.015Z,13.60
2022-08-26T03:03:58.857Z,11.38
2022-08-26T03:06:26.155Z,12.60
2022-08-26T03:08:54.018Z,12.38
2022-08-26T03:11:21.821Z,12.02
2022-08-26T03:13:49.348Z,12.45
2022-08-26T03:16:18.677Z,10.95
2022-08-26T03:18:47.026Z,10.70
2022-08-26T03:21:21.052Z,11.05
2022-08-26T03:23:48.615Z,11.27
2022-08-26T03:26:16.906Z,12.38
2022-08-26T03:29:03.045Z,12.02
2022-08-26T03:31:30.876Z,12.50
2022-08-26T03:33:59.547Z,10.70
2022-08-26T03:36:27.304Z,11.68
2022-08-26T03:38:54.660Z,11.65
2022-08-26T03:41:22.293Z,12.30
2022-08-26T03:43:51.046Z,11.63
2022-08-26T03:46:20.673Z,10.95
2022-08-26T03:48:48.471Z,12.50
2022-08-26T03:51:20.249Z,10.60
2022-08-26T03:53:48.532Z,11.52
2022-08-26T03:56:15.873Z,11.80
2022-08-26T03:58:44.661Z,11.75
2022-08-26T04:01:16.238Z,12.05
2022-08-26T04:04:00.051Z,13.05
2022-08-26T04:07:00.826Z,10.98
2022-08-26T04:09:28.586Z,14.88
2022-08-26T04:11:58.719Z,12.85
2022-08-26T04:14:28.316Z,11.18
2022-08-26T04:16:56.499Z,12.60
2022-08-26T04:19:26.092Z,11.43
2022-08-26T04:21:54.109Z,10.82
2022-08-26T04:24:24.658Z,10.88
2022-08-26T04:26:52.037Z,10.38
2022-08-26T04:29:24.584Z,9.27
2022-08-26T04:31:55.435Z,9.23
2022-08-26T04:34:27.240Z,8.43
2022-08-26T04:36:58.033Z,8.48
2022-08-26T04:39:25.753Z,8.82
2022-08-26T04:41:55.961Z,7.95
2022-08-26T04:44:28.381Z,9.48
2022-08-26T04:49:23.806Z,8.02
2022-08-26T04:51:53.832Z,8.23
2022-08-26T04:54:22.165Z,8.40
2022-08-26T04:56:50.806Z,7.75
2022-08-26T04:59:18.693Z,7.70
2022-08-26T05:01:49.344Z,8.68
2022-08-26T05:04:20.279Z,7.03
2022-08-26T05:06:50.969Z,6.90
2022-08-26T05:09:19.665Z,7.85
2022-08-26T05:11:52.407Z,7.75
2022-08-26T05:14:23.391Z,8.18
2022-08-26T05:16:52.044Z,7.60
2022-08-26T05:19:19.812Z,8.48
2022-08-26T05:21:49.449Z,7.85
2022-08-26T05:24:18.033Z,8.25
2022-08-26T05:26:47.031Z,7.80
2022-08-26T05:29:16.814Z,8.48
2022-08-26T05:31:44.466Z,7.70
2022-08-26T05:34:12.741Z,7.32
2022-08-26T05:36:40.248Z,7.63
2022-08-26T05:39:10.422Z,6.78
2022-08-26T05:41:41.176Z,8.10
2022-08-26T05:44:12.802Z,7.47
2022-08-26T05:46:44.840Z,6.68
2022-08-26T05:49:14.869Z,6.82
2022-08-26T05:51:47.704Z,6.50
2022-08-26T05:54:21.866Z,6.93
2022-08-26T05:56:53.309Z,6.32
2022-08-26T05:59:21.376Z,8.48
2022-08-26T06:01:53.542Z,7.47
2022-08-26T06:04:21.918Z,8.65
2022-08-26T06:06:49.261Z,8.15
2022-08-26T06:09:18.632Z,7.32
2022-08-26T06:11:46.225Z,7.90
2022-08-26T06:14:13.572Z,7.85
2022-08-26T06:16:45.128Z,8.73
2022-08-26T06:19:15.722Z,9.50
2022-08-26T06:21:54.108Z,9.95
2022-08-26T06:24:40.932Z,8.48
2022-08-26T06:27:13.476Z,8.27
2022-08-26T06:29:41.915Z,8.88
2022-08-26T06:32:09.238Z,9.18
2022-08-26T06:34:36.797Z,8.88
2022-08-26T06:37:06.265Z,9.63
2022-08-26T06:39:34.144Z,9.15
2022-08-26T06:42:03.083Z,8.80
2022-08-26T06:44:34.617Z,9.15
2022-08-26T06:47:02.013Z,8.65
2022-08-26T06:49:29.287Z,9.20
2022-08-26T06:52:00.116Z,8.75
2022-08-26T06:54:31.808Z,8.15
2022-08-26T06:56:59.781Z,9.10
2022-08-26T06:59:27.324Z,7.53
2022-08-26T07:01:55.094Z,8.63
2022-08-26T07:04:24.669Z,8.43
2022-08-26T07:06:53.531Z,8.90
2022-08-26T07:09:23.814Z,7.93
2022-08-26T07:11:52.734Z,8.05
2022-08-26T07:14:21.895Z,7.47
2022-08-26T07:16:52.595Z,7.93
2022-08-26T07:19:30.545Z,7.93
2022-08-26T07:22:05.873Z,8.02
2022-08-26T07:24:36.830Z,7.82
2022-08-26T07:27:09.562Z,8.68
2022-08-26T07:29:39.513Z,7.82
2022-08-26T07:32:08.463Z,7.68
2022-08-26T07:34:38.627Z,8.85
2022-08-26T07:37:08.923Z,10.30
2022-08-26T07:39:37.302Z,8.85
2022-08-26T07:42:07.518Z,8.70
2022-08-26T07:44:38.263Z,8.23
2022-08-26T07:47:10.523Z,8.82
2022-08-26T07:49:55.507Z,9.95
2022-08-26T07:52:26.782Z,8.88
2022-08-26T07:54:59.823Z,9.02
2022-08-26T07:57:28.202Z,8.68
2022-08-26T07:59:56.678Z,9.85
2022-08-26T08:02:26.628Z,8.30
2022-08-26T08:04:54.953Z,7.60
2022-08-26T08:07:38.562Z,8.10
2022-08-26T08:10:13.819Z,8.68
2022-08-26T08:12:42.207Z,8.05
2022-08-26T08:15:13.437Z,8.27
2022-08-26T08:17:43.610Z,8.15
2022-08-26T08:20:12.744Z,8.93
2022-08-26T08:22:40.473Z,8.43
2022-08-26T08:25:08.357Z,8.07
2022-08-26T08:27:40.875Z,8.85
2022-08-26T08:30:10.009Z,8.25
2022-08-26T08:32:43.758Z,8.50
2022-08-26T08:35:14.532Z,9.38
2022-08-26T08:37:43.835Z,8.27
2022-08-26T08:40:17.438Z,7.95
2022-08-26T08:43:03.671Z,9.45
2022-08-26T08:45:47.081Z,9.15
2022-08-26T08:48:35.677Z,9.48
2022-08-26T08:51:23.591Z,8.50
2022-08-26T08:53:54.722Z,8.20
2022-08-26T08:56:39.024Z,7.97
2022-08-26T08:59:27.348Z,9.35
2022-08-26T09:02:20.800Z,10.98
2022-08-26T09:05:22.148Z,9.38
2022-08-26T09:07:57.794Z,10.57
2022-08-26T09:10:40.747Z,10.38
2022-08-26T09:13:16.865Z,10.68
2022-08-26T09:16:20.391Z,11.27
2022-08-26T09:19:10.896Z,11.10
2022-08-26T09:21:38.750Z,11.27
2022-08-26T09:24:07.634Z,11.85
2022-08-26T09:26:48.100Z,13.13
2022-08-26T09:29:27.231Z,11.35
2022-08-26T09:32:24.783Z,11.43
2022-08-26T09:35:01.320Z,11.73
2022-08-26T09:37:43.839Z,11.27
2022-08-26T09:40:27.067Z,12.07
2022-08-26T09:43:10.738Z,10.15
2022-08-26T09:45:41.541Z,10.23
2022-08-26T09:48:36.370Z,11.38
2022-08-26T09:51:42.545Z,9.30
2022-08-26T09:54:30.325Z,9.27
2022-08-26T09:57:19.559Z,11.07
2022-08-26T09:59:49.404Z,9.88
2022-08-26T10:02:33.999Z,9.95
2022-08-26T10:05:09.537Z,9.30
2022-08-26T10:07:51.103Z,8.63
2022-08-26T10:10:41.157Z,8.32
2022-08-26T10:13:32.172Z,8.57
2022-08-26T10:16:11.677Z,9.32
2022-08-26T10:21:45.597Z,9.43
2022-08-26T10:24:20.822Z,8.80
2022-08-26T10:27:06.027Z,9.07
2022-08-26T10:29:48.514Z,8.13
2022-08-26T10:32:28.203Z,7.70
2022-08-26T10:34:55.619Z,8.05
2022-08-26T10:37:31.220Z,7.43
2022-08-26T10:40:18.321Z,7.65
2022-08-26T10:43:01.701Z,8.18
2022-08-26T10:45:49.936Z,8.13
2022-08-26T10:48:35.479Z,7.85
2022-08-26T10:51:04.530Z,7.63
2022-08-26T10:53:55.893Z,7.22
2022-08-26T10:56:48.490Z,7.22
2022-08-26T10:59:21.268Z,6.68
2022-08-26T11:02:22.757Z,7.20
2022-08-26T11:05:03.052Z,7.60
2022-08-26T11:07:41.008Z,7.72
2022-08-26T11:10:19.253Z,7.53
2022-08-26T11:13:07.058Z,8.32
2022-08-26T11:15:40.180Z,6.80
2022-08-26T11:18:11.332Z,7.95
2022-08-26T11:20:47.105Z,7.10
2022-08-26T11:23:20.759Z,8.02
2022-08-26T11:26:10.294Z,7.20
2022-08-26T11:28:50.391Z,7.75
2022-08-26T11:31:27.155Z,7.65
2022-08-26T11:33:58.042Z,7.32
2022-08-26T11:36:56.300Z,6.85
2022-08-26T11:39:54.960Z,7.10
2022-08-26T11:45:37.651Z,6.85
2022-08-26T11:48:29.104Z,5.60
2022-08-26T11:51:13.431Z,6.07
2022-08-26T11:53:47.192Z,5.90
2022-08-26T11:56:31.667Z,6.22
2022-08-26T11:59:03.980Z,6.88
2022-08-26T12:01:39.221Z,5.95
2022-08-26T12:04:12.077Z,5.60
2022-08-26T12:06:48.119Z,6.03
2022-08-26T12:09:36.341Z,5.85
2022-08-26T12:12:21.828Z,5.80
2022-08-26T12:14:50.200Z,6.18
2022-08-26T12:17:26.732Z,5.83
2022-08-26T12:19:54.179Z,5.70
2022-08-26T12:22:30.053Z,6.70
2022-08-26T12:25:06.135Z,5.70
2022-08-26T12:27:43.225Z,6.07
2022-08-26T12:30:20.218Z,5.80
2022-08-26T12:32:57.804Z,6.45
2022-08-26T12:35:28.916Z,6.05
2022-08-26T12:37:57.707Z,6.40
2022-08-26T12:40:33.110Z,5.93
2022-08-26T12:43:05.362Z,6.25
2022-08-26T12:45:44.098Z,5.38
2022-08-26T12:48:24.690Z,5.90
2022-08-26T12:50:52.576Z,5.22
2022-08-26T12:53:31.874Z,6.05
2022-08-26T12:56:18.295Z,7.15
2022-08-26T12:58:59.866Z,5.40
2022-08-26T13:01:27.416Z,6.22
2022-08-26T13:03:54.962Z,5.47
2022-08-26T13:06:40.468Z,6.15
2022-08-26T13:09:10.455Z,6.15
2022-08-26T13:11:40.499Z,6.32
2022-08-26T13:14:21.067Z,5.50
2022-08-26T13:16:53.043Z,6.03
2022-08-26T13:19:23.878Z,6.07
2022-08-26T13:22:00.075Z,6.10
2022-08-26T13:24:38.653Z,6.13
2022-08-26T13:27:08.953Z,6.13
2022-08-26T13:29:36.812Z,5.28
2022-08-26T13:32:06.646Z,6.55
2022-08-26T13:37:03.020Z,5.60
2022-08-26T13:39:30.499Z,5.25
2022-08-26T13:41:57.994Z,4.72
2022-08-26T13:44:25.344Z,5.80
2022-08-26T13:46:52.698Z,4.90
2022-08-26T13:49:20.126Z,4.75
2022-08-26T13:51:47.486Z,5.20
2022-08-26T13:54:14.989Z,4.90
2022-08-26T13:56:42.394Z,4.88
2022-08-26T13:59:10.000Z,4.90
2022-08-26T14:01:40.102Z,5.30
2022-08-26T14:04:08.778Z,5.28
2022-08-26T14:06:36.293Z,4.97
2022-08-26T14:09:04.858Z,5.70
2022-08-26T14:11:39.037Z,5.32
2022-08-26T14:14:19.666Z,4.82
2022-08-26T14:16:59.803Z,5.20
2022-08-26T14:19:30.097Z,5.18
2022-08-26T14:24:25.004Z,4.65
2022-08-26T14:26:52.299Z,5.03
2022-08-26T14:29:19.840Z,5.10
2022-08-26T14:31:47.219Z,5.78
2022-08-26T14:34:14.960Z,5.38
2022-08-26T14:36:42.455Z,4.93
2022-08-26T14:39:13.145Z,4.93
2022-08-26T14:41:53.901Z,4.78
2022-08-26T14:44:29.308Z,5.20
2022-08-26T14:46:57.121Z,5.05
2022-08-26T14:49:27.299Z,5.18
2022-08-26T14:51:55.324Z,5.70
2022-08-26T14:54:22.630Z,4.78
2022-08-26T14:56:59.682Z,4.60
2022-08-26T14:59:31.173Z,4.45
2022-08-26T15:02:00.517Z,5.10
2022-08-26T15:04:28.567Z,5.03
2022-08-26T15:06:59.120Z,5.28
2022-08-26T15:09:29.059Z,4.95
2022-08-26T15:14:24.517Z,4.75
2022-08-26T15:16:56.004Z,5.97
2022-08-26T15:19:26.410Z,4.53
2022-08-26T15:21:53.972Z,5.03
2022-08-26T15:24:25.994Z,5.32
2022-08-26T15:26:53.828Z,4.72
2022-08-26T15:29:22.313Z,5.32
2022-08-26T15:31:50.266Z,5.47
2022-08-26T15:34:18.223Z,5.10
2022-08-26T15:36:47.939Z,4.90
2022-08-26T15:39:17.217Z,5.05
2022-08-26T15:41:45.486Z,4.95
2022-08-26T15:44:14.419Z,5.40
2022-08-26T15:46:42.263Z,4.95
2022-08-26T15:49:16.994Z,6.28
2022-08-26T15:51:48.009Z,5.20
2022-08-26T15:54:17.730Z,5.28
2022-08-26T15:56:47.926Z,5.50
2022-08-26T15:59:15.912Z,4.93
2022-08-26T16:01:44.053Z,5.82
2022-08-26T16:04:12.050Z,7.88
2022-08-26T16:06:41.641Z,11.52
2022-08-26T16:09:10.019Z,14.65
2022-08-26T16:11:38.626Z,9.23
2022-08-26T16:14:07.816Z,8.13
2022-08-26T16:16:42.107Z,8.18
2022-08-26T16:19:09.466Z,8.48
2022-08-26T16:21:36.675Z,7.88
2022-08-26T16:24:05.001Z,6.97
2022-08-26T16:26:35.044Z,7.05
2022-08-26T16:29:11.355Z,7.40
2022-08-26T16:31:39.548Z,6.55
2022-08-26T16:34:08.676Z,5.97
2022-08-26T16:36:38.635Z,6.47
2022-08-26T16:41:35.296Z,5.93
2022-08-26T16:44:03.235Z,6.57
2022-08-26T16:46:30.993Z,7.15
2022-08-26T16:48:59.543Z,6.88
2022-08-26T16:51:28.270Z,6.53
2022-08-26T16:53:57.629Z,6.50
2022-08-26T16:56:33.725Z,6.55
2022-08-26T16:59:07.235Z,6.38
2022-08-26T17:01:34.975Z,6.43
2022-08-26T17:04:02.450Z,6.00
2022-08-26T17:06:29.864Z,6.45
2022-08-26T17:08:57.230Z,6.50
2022-08-26T17:11:24.616Z,5.53
2022-08-26T17:13:51.925Z,6.28
2022-08-26T17:16:22.262Z,6.13
2022-08-26T17:18:52.143Z,6.18
2022-08-26T17:21:19.515Z,6.20
2022-08-26T17:23:46.977Z,5.63
2022-08-26T17:26:14.334Z,6.03
2022-08-26T17:28:42.105Z,6.68
2022-08-26T17:31:12.739Z,5.65
2022-08-26T17:33:41.080Z,5.60
2022-08-26T17:36:09.586Z,5.28
2022-08-26T17:38:38.855Z,5.25
2022-08-26T17:41:12.376Z,5.67
2022-08-26T17:43:40.802Z,5.38
2022-08-26T17:46:11.401Z,4.70
2022-08-26T17:48:41.150Z,4.97
2022-08-26T17:51:15.629Z,5.15
2022-08-26T17:53:43.692Z,5.97
2022-08-26T17:56:14.359Z,5.20
2022-08-26T17:58:48.005Z,5.70
2022-08-26T18:01:22.138Z,6.43
2022-08-26T18:03:50.163Z,5.75
